Annapolis, Maryland
Current Conditions -  °F | °C
As of 8:54 PM on Thursday 20 Nov 2014 (Local Time) from KNAK Reporting Station
Clear Clear  
Wind Chill: 34°   Ceiling: Unl
Heat Index: 41°   Visibility: 10mi
Dew Point: 15°   Wind: 12mph
Humidity: 35%   Direction: 300°WNW
Pressure: 30.04"   Gusts: NA
Location:  38.98°N, 76.49°W
Report Text: KNAK 210154Z AUTO 30010KT 10SM CLR 05/M09 A3004 RMK AO2 SLP175 T00501094 $
Loading
Personal Weather Stations






























Interactive Weather Map New forecast layout! Learn more

10-Day Weather Forecast

Advertisements
Track Severe Weather on mobile